sensor_id;sensor_type;location;lat;lon;timestamp;P1;durP1;ratioP1;P2;durP2;ratioP2
2386;SDS011;49473;50.772;8.768;2023-03-31T00:00:58;5.23;;;3.47;;
2386;SDS011;49473;50.772;8.768;2023-03-31T00:03:25;5.23;;;3.40;;
2386;SDS011;49473;50.772;8.768;2023-03-31T00:05:54;7.37;;;3.63;;
2386;SDS011;49473;50.772;8.768;2023-03-31T00:08:22;5.30;;;3.30;;
2386;SDS011;49473;50.772;8.768;2023-03-31T00:10:49;5.93;;;3.87;;
2386;SDS011;49473;50.772;8.768;2023-03-31T00:13:15;7.03;;;3.90;;
2386;SDS011;49473;50.772;8.768;2023-03-31T00:15:42;4.97;;;3.60;;
2386;SDS011;49473;50.772;8.768;2023-03-31T00:18:11;8.80;;;4.30;;
2386;SDS011;49473;50.772;8.768;2023-03-31T00:20:38;6.63;;;3.70;;
2386;SDS011;49473;50.772;8.768;2023-03-31T00:23:06;6.53;;;3.80;;
2386;SDS011;49473;50.772;8.768;2023-03-31T00:25:34;5.93;;;3.83;;
2386;SDS011;49473;50.772;8.768;2023-03-31T00:28:04;7.50;;;3.77;;
2386;SDS011;49473;50.772;8.768;2023-03-31T00:30:31;6.33;;;3.70;;
2386;SDS011;49473;50.772;8.768;2023-03-31T00:32:58;5.00;;;3.67;;
2386;SDS011;49473;50.772;8.768;2023-03-31T00:35:27;4.87;;;3.50;;
2386;SDS011;49473;50.772;8.768;2023-03-31T00:37:53;5.63;;;3.37;;
2386;SDS011;49473;50.772;8.768;2023-03-31T00:40:22;5.33;;;3.50;;
2386;SDS011;49473;50.772;8.768;2023-03-31T00:42:49;9.43;;;3.43;;
2386;SDS011;49473;50.772;8.768;2023-03-31T00:45:25;4.07;;;2.93;;
2386;SDS011;49473;50.772;8.768;2023-03-31T00:47:54;6.07;;;3.30;;
2386;SDS011;49473;50.772;8.768;2023-03-31T00:50:31;4.00;;;2.93;;
2386;SDS011;49473;50.772;8.768;2023-03-31T00:53:04;4.50;;;3.13;;
2386;SDS011;49473;50.772;8.768;2023-03-31T00:55:35;4.50;;;3.37;;
2386;SDS011;49473;50.772;8.768;2023-03-31T00:58:05;4.50;;;3.60;;
2386;SDS011;49473;50.772;8.768;2023-03-31T01:00:33;7.13;;;3.33;;
2386;SDS011;49473;50.772;8.768;2023-03-31T01:03:00;4.30;;;3.13;;
2386;SDS011;49473;50.772;8.768;2023-03-31T01:05:33;5.50;;;3.00;;
2386;SDS011;49473;50.772;8.768;2023-03-31T01:08:04;4.10;;;3.43;;
2386;SDS011;49473;50.772;8.768;2023-03-31T01:10:32;4.77;;;3.37;;
2386;SDS011;49473;50.772;8.768;2023-03-31T01:13:05;4.93;;;3.00;;
2386;SDS011;49473;50.772;8.768;2023-03-31T01:15:33;5.83;;;3.40;;
2386;SDS011;49473;50.772;8.768;2023-03-31T01:18:00;6.10;;;3.23;;
2386;SDS011;49473;50.772;8.768;2023-03-31T01:20:30;4.07;;;3.03;;
2386;SDS011;49473;50.772;8.768;2023-03-31T01:26:14;6.70;;;3.43;;
2386;SDS011;49473;50.772;8.768;2023-03-31T01:29:03;4.83;;;3.17;;
2386;SDS011;49473;50.772;8.768;2023-03-31T01:41:02;5.07;;;3.10;;
2386;SDS011;49473;50.772;8.768;2023-03-31T01:43:44;5.30;;;3.53;;
2386;SDS011;49473;50.772;8.768;2023-03-31T01:46:17;5.43;;;3.60;;
2386;SDS011;49473;50.772;8.768;2023-03-31T01:48:50;5.90;;;3.97;;
2386;SDS011;49473;50.772;8.768;2023-03-31T01:51:26;6.57;;;3.70;;
2386;SDS011;49473;50.772;8.768;2023-03-31T01:54:00;4.87;;;3.50;;
2386;SDS011;49473;50.772;8.768;2023-03-31T01:56:35;7.23;;;3.37;;
2386;SDS011;49473;50.772;8.768;2023-03-31T01:59:06;6.13;;;3.47;;
2386;SDS011;49473;50.772;8.768;2023-03-31T02:01:38;7.00;;;3.70;;
2386;SDS011;49473;50.772;8.768;2023-03-31T02:04:12;6.03;;;3.60;;
2386;SDS011;49473;50.772;8.768;2023-03-31T02:06:43;6.00;;;3.60;;
2386;SDS011;49473;50.772;8.768;2023-03-31T02:09:18;7.03;;;3.50;;
2386;SDS011;49473;50.772;8.768;2023-03-31T02:11:49;6.97;;;3.60;;
2386;SDS011;49473;50.772;8.768;2023-03-31T02:14:19;7.37;;;4.10;;
2386;SDS011;49473;50.772;8.768;2023-03-31T02:16:49;5.10;;;3.50;;
2386;SDS011;49473;50.772;8.768;2023-03-31T02:19:22;6.03;;;3.70;;
2386;SDS011;49473;50.772;8.768;2023-03-31T02:21:51;6.67;;;3.50;;
2386;SDS011;49473;50.772;8.768;2023-03-31T02:24:20;7.37;;;3.80;;
2386;SDS011;49473;50.772;8.768;2023-03-31T02:26:52;5.60;;;3.90;;
2386;SDS011;49473;50.772;8.768;2023-03-31T02:29:22;7.40;;;3.43;;
2386;SDS011;49473;50.772;8.768;2023-03-31T02:31:51;9.17;;;3.97;;
2386;SDS011;49473;50.772;8.768;2023-03-31T02:34:23;5.60;;;3.57;;
2386;SDS011;49473;50.772;8.768;2023-03-31T02:36:50;7.80;;;3.90;;
2386;SDS011;49473;50.772;8.768;2023-03-31T02:39:18;7.80;;;3.87;;
2386;SDS011;49473;50.772;8.768;2023-03-31T02:41:50;6.03;;;3.67;;
2386;SDS011;49473;50.772;8.768;2023-03-31T02:44:18;6.97;;;3.73;;
2386;SDS011;49473;50.772;8.768;2023-03-31T02:46:46;6.00;;;3.57;;
2386;SDS011;49473;50.772;8.768;2023-03-31T02:49:14;6.40;;;3.70;;
2386;SDS011;49473;50.772;8.768;2023-03-31T02:51:59;6.03;;;3.90;;
2386;SDS011;49473;50.772;8.768;2023-03-31T02:54:39;7.07;;;3.63;;
2386;SDS011;49473;50.772;8.768;2023-03-31T02:57:22;8.30;;;4.13;;
2386;SDS011;49473;50.772;8.768;2023-03-31T03:00:05;6.20;;;3.57;;
2386;SDS011;49473;50.772;8.768;2023-03-31T03:02:41;9.37;;;3.70;;
2386;SDS011;49473;50.772;8.768;2023-03-31T03:05:18;7.53;;;3.97;;
2386;SDS011;49473;50.772;8.768;2023-03-31T03:07:54;6.73;;;4.10;;
2386;SDS011;49473;50.772;8.768;2023-03-31T03:10:27;7.40;;;3.67;;
2386;SDS011;49473;50.772;8.768;2023-03-31T03:13:08;6.83;;;3.83;;
2386;SDS011;49473;50.772;8.768;2023-03-31T03:15:42;6.50;;;3.87;;
2386;SDS011;49473;50.772;8.768;2023-03-31T03:18:12;10.63;;;4.10;;
2386;SDS011;49473;50.772;8.768;2023-03-31T03:20:41;7.83;;;3.93;;
2386;SDS011;49473;50.772;8.768;2023-03-31T03:23:12;8.77;;;4.40;;
2386;SDS011;49473;50.772;8.768;2023-03-31T03:25:39;7.90;;;3.77;;
2386;SDS011;49473;50.772;8.768;2023-03-31T03:28:07;8.20;;;4.00;;
2386;SDS011;49473;50.772;8.768;2023-03-31T03:30:34;4.97;;;3.73;;
2386;SDS011;49473;50.772;8.768;2023-03-31T03:33:03;9.50;;;3.80;;
2386;SDS011;49473;50.772;8.768;2023-03-31T03:35:31;7.77;;;4.13;;
2386;SDS011;49473;50.772;8.768;2023-03-31T03:37:58;9.67;;;4.00;;
2386;SDS011;49473;50.772;8.768;2023-03-31T03:40:24;7.30;;;3.93;;
2386;SDS011;49473;50.772;8.768;2023-03-31T03:42:51;6.63;;;3.77;;
2386;SDS011;49473;50.772;8.768;2023-03-31T03:45:19;8.70;;;4.20;;
2386;SDS011;49473;50.772;8.768;2023-03-31T03:47:46;7.17;;;4.20;;
2386;SDS011;49473;50.772;8.768;2023-03-31T03:50:13;9.00;;;4.20;;
2386;SDS011;49473;50.772;8.768;2023-03-31T03:52:40;7.80;;;4.30;;
2386;SDS011;49473;50.772;8.768;2023-03-31T03:55:07;8.03;;;3.90;;
2386;SDS011;49473;50.772;8.768;2023-03-31T03:57:36;7.67;;;3.93;;
2386;SDS011;49473;50.772;8.768;2023-03-31T04:00:03;8.20;;;3.93;;
2386;SDS011;49473;50.772;8.768;2023-03-31T04:02:35;8.93;;;3.83;;
2386;SDS011;49473;50.772;8.768;2023-03-31T04:05:02;8.83;;;4.10;;
2386;SDS011;49473;50.772;8.768;2023-03-31T04:07:29;8.80;;;4.00;;
2386;SDS011;49473;50.772;8.768;2023-03-31T04:09:56;6.23;;;4.40;;
2386;SDS011;49473;50.772;8.768;2023-03-31T04:12:22;6.00;;;4.27;;
2386;SDS011;49473;50.772;8.768;2023-03-31T04:14:49;6.43;;;3.70;;
2386;SDS011;49473;50.772;8.768;2023-03-31T04:17:16;6.50;;;4.13;;
2386;SDS011;49473;50.772;8.768;2023-03-31T04:19:44;9.27;;;4.60;;
2386;SDS011;49473;50.772;8.768;2023-03-31T04:22:14;10.50;;;4.20;;
2386;SDS011;49473;50.772;8.768;2023-03-31T04:24:44;7.50;;;4.03;;
2386;SDS011;49473;50.772;8.768;2023-03-31T04:27:16;10.53;;;4.43;;
2386;SDS011;49473;50.772;8.768;2023-03-31T04:29:45;5.43;;;3.77;;
2386;SDS011;49473;50.772;8.768;2023-03-31T04:32:18;8.30;;;4.40;;
2386;SDS011;49473;50.772;8.768;2023-03-31T04:34:47;8.20;;;4.47;;
2386;SDS011;49473;50.772;8.768;2023-03-31T04:37:14;8.70;;;4.60;;
2386;SDS011;49473;50.772;8.768;2023-03-31T04:39:41;8.87;;;5.30;;
2386;SDS011;49473;50.772;8.768;2023-03-31T04:42:10;8.20;;;4.93;;
2386;SDS011;49473;50.772;8.768;2023-03-31T04:44:38;6.10;;;5.40;;
2386;SDS011;49473;50.772;8.768;2023-03-31T04:47:05;12.40;;;5.90;;
2386;SDS011;49473;50.772;8.768;2023-03-31T04:49:32;12.30;;;6.10;;
2386;SDS011;49473;50.772;8.768;2023-03-31T04:52:01;11.23;;;6.40;;
2386;SDS011;49473;50.772;8.768;2023-03-31T04:54:28;8.00;;;6.27;;
2386;SDS011;49473;50.772;8.768;2023-03-31T04:56:54;9.00;;;6.90;;
2386;SDS011;49473;50.772;8.768;2023-03-31T04:59:21;9.90;;;7.40;;
2386;SDS011;49473;50.772;8.768;2023-03-31T05:01:48;10.07;;;6.80;;
2386;SDS011;49473;50.772;8.768;2023-03-31T05:04:14;8.97;;;5.73;;
2386;SDS011;49473;50.772;8.768;2023-03-31T05:06:41;9.63;;;6.27;;
2386;SDS011;49473;50.772;8.768;2023-03-31T05:09:09;9.33;;;5.93;;
2386;SDS011;49473;50.772;8.768;2023-03-31T05:11:36;8.67;;;6.10;;
2386;SDS011;49473;50.772;8.768;2023-03-31T05:14:03;8.47;;;5.57;;
2386;SDS011;49473;50.772;8.768;2023-03-31T05:16:30;7.87;;;4.93;;
2386;SDS011;49473;50.772;8.768;2023-03-31T05:18:56;9.77;;;5.80;;
2386;SDS011;49473;50.772;8.768;2023-03-31T05:21:23;9.30;;;5.40;;
2386;SDS011;49473;50.772;8.768;2023-03-31T05:23:51;6.23;;;4.63;;
2386;SDS011;49473;50.772;8.768;2023-03-31T05:26:19;8.67;;;5.40;;
2386;SDS011;49473;50.772;8.768;2023-03-31T05:28:49;8.10;;;5.47;;
2386;SDS011;49473;50.772;8.768;2023-03-31T05:31:16;9.83;;;4.80;;
2386;SDS011;49473;50.772;8.768;2023-03-31T05:33:43;6.03;;;4.80;;
2386;SDS011;49473;50.772;8.768;2023-03-31T05:36:10;8.83;;;4.83;;
2386;SDS011;49473;50.772;8.768;2023-03-31T05:38:39;5.93;;;4.40;;
2386;SDS011;49473;50.772;8.768;2023-03-31T05:41:06;8.77;;;5.23;;
2386;SDS011;49473;50.772;8.768;2023-03-31T05:43:34;8.00;;;5.00;;
2386;SDS011;49473;50.772;8.768;2023-03-31T05:46:01;4.70;;;3.90;;
2386;SDS011;49473;50.772;8.768;2023-03-31T05:48:29;7.07;;;5.63;;
2386;SDS011;49473;50.772;8.768;2023-03-31T05:50:56;10.63;;;5.33;;
2386;SDS011;49473;50.772;8.768;2023-03-31T05:53:23;9.17;;;6.40;;
2386;SDS011;49473;50.772;8.768;2023-03-31T05:55:55;7.00;;;5.20;;
2386;SDS011;49473;50.772;8.768;2023-03-31T05:58:22;6.03;;;5.47;;
2386;SDS011;49473;50.772;8.768;2023-03-31T06:00:58;8.93;;;4.63;;
2386;SDS011;49473;50.772;8.768;2023-03-31T06:03:26;8.37;;;4.50;;
2386;SDS011;49473;50.772;8.768;2023-03-31T06:05:53;8.37;;;4.43;;
2386;SDS011;49473;50.772;8.768;2023-03-31T06:08:19;8.00;;;4.63;;
2386;SDS011;49473;50.772;8.768;2023-03-31T06:10:46;11.97;;;3.73;;
2386;SDS011;49473;50.772;8.768;2023-03-31T06:13:13;4.67;;;3.10;;
2386;SDS011;49473;50.772;8.768;2023-03-31T06:15:40;2.67;;;2.20;;
2386;SDS011;49473;50.772;8.768;2023-03-31T06:18:08;5.67;;;2.50;;
2386;SDS011;49473;50.772;8.768;2023-03-31T06:20:35;5.90;;;2.80;;
2386;SDS011;49473;50.772;8.768;2023-03-31T06:23:02;7.97;;;3.20;;
2386;SDS011;49473;50.772;8.768;2023-03-31T06:25:28;6.00;;;2.70;;
2386;SDS011;49473;50.772;8.768;2023-03-31T06:27:55;7.40;;;3.27;;
2386;SDS011;49473;50.772;8.768;2023-03-31T06:30:22;4.33;;;2.87;;
2386;SDS011;49473;50.772;8.768;2023-03-31T06:32:49;4.53;;;2.90;;
2386;SDS011;49473;50.772;8.768;2023-03-31T06:35:17;8.60;;;3.33;;
2386;SDS011;49473;50.772;8.768;2023-03-31T06:37:43;5.93;;;3.43;;
2386;SDS011;49473;50.772;8.768;2023-03-31T06:40:10;5.27;;;2.73;;
2386;SDS011;49473;50.772;8.768;2023-03-31T06:42:37;6.70;;;4.90;;
2386;SDS011;49473;50.772;8.768;2023-03-31T06:45:04;6.13;;;4.60;;
2386;SDS011;49473;50.772;8.768;2023-03-31T06:47:32;22.33;;;14.40;;
2386;SDS011;49473;50.772;8.768;2023-03-31T06:49:58;8.00;;;5.40;;
2386;SDS011;49473;50.772;8.768;2023-03-31T06:52:27;10.17;;;4.87;;
2386;SDS011;49473;50.772;8.768;2023-03-31T06:54:53;18.13;;;9.87;;
2386;SDS011;49473;50.772;8.768;2023-03-31T06:57:20;18.80;;;12.50;;
2386;SDS011;49473;50.772;8.768;2023-03-31T06:59:47;18.30;;;12.47;;
2386;SDS011;49473;50.772;8.768;2023-03-31T07:02:13;10.70;;;6.67;;
2386;SDS011;49473;50.772;8.768;2023-03-31T07:04:40;5.70;;;3.23;;
2386;SDS011;49473;50.772;8.768;2023-03-31T07:07:07;6.70;;;3.90;;
2386;SDS011;49473;50.772;8.768;2023-03-31T07:09:35;5.30;;;2.90;;
2386;SDS011;49473;50.772;8.768;2023-03-31T07:12:02;9.27;;;6.63;;
2386;SDS011;49473;50.772;8.768;2023-03-31T07:14:29;4.80;;;2.90;;
2386;SDS011;49473;50.772;8.768;2023-03-31T07:16:56;8.27;;;4.30;;
2386;SDS011;49473;50.772;8.768;2023-03-31T07:19:23;4.97;;;3.50;;
2386;SDS011;49473;50.772;8.768;2023-03-31T07:21:50;5.07;;;3.87;;
2386;SDS011;49473;50.772;8.768;2023-03-31T07:24:17;5.80;;;2.90;;
2386;SDS011;49473;50.772;8.768;2023-03-31T07:26:45;3.90;;;2.13;;
2386;SDS011;49473;50.772;8.768;2023-03-31T07:29:12;3.50;;;1.90;;
2386;SDS011;49473;50.772;8.768;2023-03-31T07:31:39;3.17;;;2.33;;
2386;SDS011;49473;50.772;8.768;2023-03-31T07:34:06;5.50;;;2.90;;
2386;SDS011;49473;50.772;8.768;2023-03-31T07:36:33;3.03;;;2.37;;
2386;SDS011;49473;50.772;8.768;2023-03-31T07:39:00;3.63;;;3.30;;
2386;SDS011;49473;50.772;8.768;2023-03-31T07:41:27;4.03;;;2.60;;
2386;SDS011;49473;50.772;8.768;2023-03-31T07:43:55;9.60;;;3.20;;
2386;SDS011;49473;50.772;8.768;2023-03-31T07:46:23;3.77;;;3.43;;
2386;SDS011;49473;50.772;8.768;2023-03-31T07:48:51;8.20;;;3.00;;
2386;SDS011;49473;50.772;8.768;2023-03-31T07:51:20;3.20;;;1.80;;
2386;SDS011;49473;50.772;8.768;2023-03-31T07:53:48;5.73;;;4.77;;
2386;SDS011;49473;50.772;8.768;2023-03-31T07:56:16;9.00;;;7.50;;
2386;SDS011;49473;50.772;8.768;2023-03-31T07:58:43;8.60;;;7.70;;
2386;SDS011;49473;50.772;8.768;2023-03-31T08:01:13;6.97;;;5.83;;
2386;SDS011;49473;50.772;8.768;2023-03-31T08:03:41;8.27;;;5.40;;
2386;SDS011;49473;50.772;8.768;2023-03-31T08:06:08;4.70;;;3.60;;
2386;SDS011;49473;50.772;8.768;2023-03-31T08:08:35;2.33;;;2.13;;
2386;SDS011;49473;50.772;8.768;2023-03-31T08:11:02;4.10;;;2.40;;
2386;SDS011;49473;50.772;8.768;2023-03-31T08:13:29;2.70;;;1.97;;
2386;SDS011;49473;50.772;8.768;2023-03-31T08:15:56;2.80;;;2.10;;
2386;SDS011;49473;50.772;8.768;2023-03-31T08:18:24;5.90;;;4.00;;
2386;SDS011;49473;50.772;8.768;2023-03-31T08:20:51;3.10;;;2.50;;
2386;SDS011;49473;50.772;8.768;2023-03-31T08:23:17;4.83;;;2.40;;
2386;SDS011;49473;50.772;8.768;2023-03-31T08:25:44;4.97;;;2.40;;
2386;SDS011;49473;50.772;8.768;2023-03-31T08:28:12;5.37;;;3.77;;
2386;SDS011;49473;50.772;8.768;2023-03-31T08:30:39;4.03;;;3.00;;
2386;SDS011;49473;50.772;8.768;2023-03-31T08:33:06;7.80;;;5.67;;
2386;SDS011;49473;50.772;8.768;2023-03-31T08:35:35;5.03;;;3.23;;
2386;SDS011;49473;50.772;8.768;2023-03-31T08:38:01;1.97;;;1.80;;
2386;SDS011;49473;50.772;8.768;2023-03-31T08:40:29;2.00;;;1.73;;
2386;SDS011;49473;50.772;8.768;2023-03-31T08:42:58;2.23;;;1.50;;
2386;SDS011;49473;50.772;8.768;2023-03-31T08:45:30;3.77;;;1.00;;
2386;SDS011;49473;50.772;8.768;2023-03-31T08:48:01;1.50;;;1.00;;
2386;SDS011;49473;50.772;8.768;2023-03-31T08:50:32;2.43;;;1.63;;
2386;SDS011;49473;50.772;8.768;2023-03-31T08:53:05;1.20;;;1.10;;
2386;SDS011;49473;50.772;8.768;2023-03-31T08:55:39;2.03;;;1.00;;
2386;SDS011;49473;50.772;8.768;2023-03-31T08:58:12;1.27;;;1.10;;
2386;SDS011;49473;50.772;8.768;2023-03-31T09:00:48;2.10;;;1.20;;
2386;SDS011;49473;50.772;8.768;2023-03-31T09:03:22;1.67;;;1.10;;
2386;SDS011;49473;50.772;8.768;2023-03-31T09:05:57;1.30;;;0.90;;
2386;SDS011;49473;50.772;8.768;2023-03-31T09:08:30;2.40;;;0.90;;
2386;SDS011;49473;50.772;8.768;2023-03-31T09:11:03;1.90;;;1.40;;
2386;SDS011;49473;50.772;8.768;2023-03-31T09:13:41;1.20;;;1.10;;
2386;SDS011;49473;50.772;8.768;2023-03-31T09:16:22;1.50;;;0.87;;
2386;SDS011;49473;50.772;8.768;2023-03-31T09:18:51;1.83;;;0.83;;
2386;SDS011;49473;50.772;8.768;2023-03-31T09:21:25;0.93;;;0.83;;
2386;SDS011;49473;50.772;8.768;2023-03-31T09:23:57;1.47;;;1.10;;
2386;SDS011;49473;50.772;8.768;2023-03-31T09:26:31;1.13;;;1.03;;
2386;SDS011;49473;50.772;8.768;2023-03-31T09:29:03;1.27;;;0.90;;
2386;SDS011;49473;50.772;8.768;2023-03-31T09:31:32;1.57;;;1.10;;
2386;SDS011;49473;50.772;8.768;2023-03-31T09:34:00;1.87;;;0.90;;
2386;SDS011;49473;50.772;8.768;2023-03-31T09:36:40;1.10;;;0.77;;
2386;SDS011;49473;50.772;8.768;2023-03-31T09:39:09;3.30;;;0.80;;
2386;SDS011;49473;50.772;8.768;2023-03-31T09:41:38;1.47;;;1.30;;
2386;SDS011;49473;50.772;8.768;2023-03-31T09:44:10;1.23;;;1.17;;
2386;SDS011;49473;50.772;8.768;2023-03-31T09:46:51;1.43;;;1.33;;
2386;SDS011;49473;50.772;8.768;2023-03-31T09:49:20;1.63;;;1.00;;
2386;SDS011;49473;50.772;8.768;2023-03-31T09:51:51;1.93;;;0.90;;
2386;SDS011;49473;50.772;8.768;2023-03-31T09:54:27;1.90;;;1.27;;
2386;SDS011;49473;50.772;8.768;2023-03-31T09:57:02;2.07;;;0.90;;
2386;SDS011;49473;50.772;8.768;2023-03-31T09:59:37;1.70;;;1.00;;
2386;SDS011;49473;50.772;8.768;2023-03-31T10:02:14;1.13;;;1.00;;
2386;SDS011;49473;50.772;8.768;2023-03-31T10:04:58;2.30;;;2.10;;
2386;SDS011;49473;50.772;8.768;2023-03-31T10:07:27;1.50;;;1.43;;
2386;SDS011;49473;50.772;8.768;2023-03-31T10:09:54;2.20;;;1.37;;
2386;SDS011;49473;50.772;8.768;2023-03-31T10:12:21;3.40;;;2.23;;
2386;SDS011;49473;50.772;8.768;2023-03-31T10:14:51;2.93;;;1.90;;
2386;SDS011;49473;50.772;8.768;2023-03-31T10:17:19;0.80;;;0.80;;
2386;SDS011;49473;50.772;8.768;2023-03-31T10:19:48;2.37;;;1.17;;
2386;SDS011;49473;50.772;8.768;2023-03-31T10:22:26;3.10;;;1.90;;
2386;SDS011;49473;50.772;8.768;2023-03-31T10:25:03;2.23;;;1.63;;
2386;SDS011;49473;50.772;8.768;2023-03-31T10:27:34;1.20;;;1.03;;
2386;SDS011;49473;50.772;8.768;2023-03-31T10:30:08;1.77;;;1.00;;
2386;SDS011;49473;50.772;8.768;2023-03-31T10:32:37;1.13;;;1.00;;
2386;SDS011;49473;50.772;8.768;2023-03-31T10:35:07;2.40;;;0.90;;
2386;SDS011;49473;50.772;8.768;2023-03-31T10:37:42;2.30;;;1.70;;
2386;SDS011;49473;50.772;8.768;2023-03-31T10:40:12;2.43;;;1.20;;
2386;SDS011;49473;50.772;8.768;2023-03-31T10:42:41;1.93;;;1.27;;
2386;SDS011;49473;50.772;8.768;2023-03-31T10:45:11;2.60;;;1.30;;
2386;SDS011;49473;50.772;8.768;2023-03-31T10:47:48;1.13;;;1.00;;
2386;SDS011;49473;50.772;8.768;2023-03-31T10:50:18;1.70;;;1.13;;
2386;SDS011;49473;50.772;8.768;2023-03-31T10:52:52;3.90;;;1.33;;
2386;SDS011;49473;50.772;8.768;2023-03-31T10:55:28;4.30;;;1.67;;
2386;SDS011;49473;50.772;8.768;2023-03-31T10:58:04;2.10;;;1.73;;
2386;SDS011;49473;50.772;8.768;2023-03-31T11:00:41;2.33;;;1.60;;
2386;SDS011;49473;50.772;8.768;2023-03-31T11:03:28;2.70;;;1.40;;
2386;SDS011;49473;50.772;8.768;2023-03-31T11:06:21;2.10;;;1.90;;
2386;SDS011;49473;50.772;8.768;2023-03-31T11:08:56;4.87;;;2.57;;
2386;SDS011;49473;50.772;8.768;2023-03-31T11:11:37;2.50;;;2.23;;
2386;SDS011;49473;50.772;8.768;2023-03-31T11:14:25;4.27;;;2.00;;
2386;SDS011;49473;50.772;8.768;2023-03-31T11:17:02;3.73;;;2.50;;
2386;SDS011;49473;50.772;8.768;2023-03-31T11:19:40;4.87;;;3.63;;
2386;SDS011;49473;50.772;8.768;2023-03-31T11:22:14;5.80;;;3.40;;
2386;SDS011;49473;50.772;8.768;2023-03-31T11:25:02;5.10;;;4.00;;
2386;SDS011;49473;50.772;8.768;2023-03-31T11:27:55;4.43;;;3.60;;
2386;SDS011;49473;50.772;8.768;2023-03-31T11:30:50;7.50;;;4.23;;
2386;SDS011;49473;50.772;8.768;2023-03-31T11:33:28;5.27;;;3.70;;
2386;SDS011;49473;50.772;8.768;2023-03-31T11:36:05;6.00;;;3.80;;
2386;SDS011;49473;50.772;8.768;2023-03-31T11:38:51;4.07;;;3.00;;
2386;SDS011;49473;50.772;8.768;2023-03-31T11:41:31;7.57;;;3.10;;
2386;SDS011;49473;50.772;8.768;2023-03-31T11:44:02;4.33;;;3.70;;
2386;SDS011;49473;50.772;8.768;2023-03-31T11:46:35;3.47;;;0.97;;
2386;SDS011;49473;50.772;8.768;2023-03-31T11:49:07;2.00;;;1.20;;
2386;SDS011;49473;50.772;8.768;2023-03-31T11:51:42;3.03;;;1.20;;
2386;SDS011;49473;50.772;8.768;2023-03-31T11:54:15;7.53;;;1.40;;
2386;SDS011;49473;50.772;8.768;2023-03-31T11:56:46;3.20;;;1.17;;
2386;SDS011;49473;50.772;8.768;2023-03-31T11:59:14;1.23;;;0.80;;
2386;SDS011;49473;50.772;8.768;2023-03-31T12:01:43;1.90;;;0.97;;
2386;SDS011;49473;50.772;8.768;2023-03-31T12:04:16;1.73;;;1.47;;
2386;SDS011;49473;50.772;8.768;2023-03-31T12:06:51;1.60;;;0.97;;
2386;SDS011;49473;50.772;8.768;2023-03-31T12:09:24;1.93;;;0.70;;
2386;SDS011;49473;50.772;8.768;2023-03-31T12:11:58;1.30;;;0.90;;
2386;SDS011;49473;50.772;8.768;2023-03-31T12:14:30;3.33;;;1.43;;
2386;SDS011;49473;50.772;8.768;2023-03-31T12:17:01;2.83;;;0.80;;
2386;SDS011;49473;50.772;8.768;2023-03-31T12:19:35;1.90;;;0.90;;
2386;SDS011;49473;50.772;8.768;2023-03-31T12:22:09;1.47;;;1.20;;
2386;SDS011;49473;50.772;8.768;2023-03-31T12:24:39;2.17;;;1.00;;
2386;SDS011;49473;50.772;8.768;2023-03-31T12:27:10;1.60;;;1.30;;
2386;SDS011;49473;50.772;8.768;2023-03-31T12:29:41;3.63;;;1.30;;
2386;SDS011;49473;50.772;8.768;2023-03-31T12:32:12;2.00;;;1.40;;
2386;SDS011;49473;50.772;8.768;2023-03-31T12:34:43;3.77;;;1.40;;
2386;SDS011;49473;50.772;8.768;2023-03-31T12:40:21;1.70;;;1.30;;
2386;SDS011;49473;50.772;8.768;2023-03-31T12:43:00;3.70;;;1.43;;
2386;SDS011;49473;50.772;8.768;2023-03-31T12:45:45;2.83;;;1.30;;
2386;SDS011;49473;50.772;8.768;2023-03-31T12:48:23;3.97;;;1.63;;
2386;SDS011;49473;50.772;8.768;2023-03-31T12:51:13;4.40;;;1.50;;
2386;SDS011;49473;50.772;8.768;2023-03-31T12:53:58;2.77;;;1.17;;
2386;SDS011;49473;50.772;8.768;2023-03-31T12:59:32;2.67;;;1.20;;
2386;SDS011;49473;50.772;8.768;2023-03-31T13:04:50;2.67;;;1.10;;
2386;SDS011;49473;50.772;8.768;2023-03-31T13:07:36;4.03;;;1.77;;
2386;SDS011;49473;50.772;8.768;2023-03-31T13:10:23;2.30;;;1.00;;
2386;SDS011;49473;50.772;8.768;2023-03-31T13:13:02;2.83;;;1.10;;
2386;SDS011;49473;50.772;8.768;2023-03-31T13:15:32;4.33;;;3.23;;
2386;SDS011;49473;50.772;8.768;2023-03-31T13:17:59;4.00;;;3.20;;
2386;SDS011;49473;50.772;8.768;2023-03-31T13:20:31;3.17;;;2.47;;
2386;SDS011;49473;50.772;8.768;2023-03-31T13:23:04;6.00;;;4.10;;
2386;SDS011;49473;50.772;8.768;2023-03-31T13:25:43;2.43;;;1.50;;
2386;SDS011;49473;50.772;8.768;2023-03-31T13:28:15;3.67;;;1.43;;
2386;SDS011;49473;50.772;8.768;2023-03-31T13:30:58;3.00;;;1.97;;
2386;SDS011;49473;50.772;8.768;2023-03-31T13:33:27;4.57;;;3.90;;
2386;SDS011;49473;50.772;8.768;2023-03-31T13:36:12;7.47;;;4.00;;
2386;SDS011;49473;50.772;8.768;2023-03-31T13:39:10;4.93;;;3.77;;
2386;SDS011;49473;50.772;8.768;2023-03-31T13:42:04;5.50;;;4.13;;
2386;SDS011;49473;50.772;8.768;2023-03-31T13:44:49;7.47;;;3.73;;
2386;SDS011;49473;50.772;8.768;2023-03-31T13:47:43;5.47;;;3.20;;
2386;SDS011;49473;50.772;8.768;2023-03-31T13:50:40;3.27;;;2.97;;
2386;SDS011;49473;50.772;8.768;2023-03-31T13:53:28;6.47;;;3.20;;
2386;SDS011;49473;50.772;8.768;2023-03-31T13:56:21;6.60;;;2.90;;
2386;SDS011;49473;50.772;8.768;2023-03-31T14:02:05;5.17;;;1.10;;
2386;SDS011;49473;50.772;8.768;2023-03-31T14:04:57;1.23;;;0.70;;
2386;SDS011;49473;50.772;8.768;2023-03-31T14:07:42;1.60;;;0.80;;
2386;SDS011;49473;50.772;8.768;2023-03-31T14:10:20;1.13;;;0.70;;
2386;SDS011;49473;50.772;8.768;2023-03-31T14:12:48;3.00;;;0.83;;
2386;SDS011;49473;50.772;8.768;2023-03-31T14:15:17;3.03;;;1.03;;
2386;SDS011;49473;50.772;8.768;2023-03-31T14:17:45;3.00;;;1.63;;
2386;SDS011;49473;50.772;8.768;2023-03-31T14:20:24;1.87;;;0.80;;
2386;SDS011;49473;50.772;8.768;2023-03-31T14:23:03;3.30;;;3.00;;
2386;SDS011;49473;50.772;8.768;2023-03-31T14:25:39;4.20;;;3.20;;
2386;SDS011;49473;50.772;8.768;2023-03-31T14:31:17;1.93;;;1.40;;
2386;SDS011;49473;50.772;8.768;2023-03-31T14:33:55;4.87;;;3.60;;
2386;SDS011;49473;50.772;8.768;2023-03-31T14:36:39;1.77;;;1.40;;
2386;SDS011;49473;50.772;8.768;2023-03-31T14:39:13;3.77;;;1.57;;
2386;SDS011;49473;50.772;8.768;2023-03-31T14:41:48;1.23;;;0.83;;
2386;SDS011;49473;50.772;8.768;2023-03-31T14:44:17;2.87;;;2.73;;
2386;SDS011;49473;50.772;8.768;2023-03-31T14:46:44;7.47;;;5.03;;
2386;SDS011;49473;50.772;8.768;2023-03-31T14:49:17;2.20;;;1.23;;
2386;SDS011;49473;50.772;8.768;2023-03-31T14:51:47;2.60;;;1.60;;
2386;SDS011;49473;50.772;8.768;2023-03-31T14:54:17;1.60;;;0.70;;
2386;SDS011;49473;50.772;8.768;2023-03-31T14:56:46;1.43;;;0.90;;
2386;SDS011;49473;50.772;8.768;2023-03-31T14:59:17;2.27;;;1.23;;
2386;SDS011;49473;50.772;8.768;2023-03-31T15:01:46;5.40;;;1.47;;
2386;SDS011;49473;50.772;8.768;2023-03-31T15:04:16;1.13;;;1.00;;
2386;SDS011;49473;50.772;8.768;2023-03-31T15:06:48;1.60;;;1.20;;
2386;SDS011;49473;50.772;8.768;2023-03-31T15:09:18;2.07;;;1.40;;
2386;SDS011;49473;50.772;8.768;2023-03-31T15:11:53;6.77;;;5.10;;
2386;SDS011;49473;50.772;8.768;2023-03-31T15:14:23;5.13;;;3.70;;
2386;SDS011;49473;50.772;8.768;2023-03-31T15:16:54;2.53;;;1.30;;
2386;SDS011;49473;50.772;8.768;2023-03-31T15:19:21;1.70;;;1.50;;
2386;SDS011;49473;50.772;8.768;2023-03-31T15:21:54;3.90;;;1.40;;
2386;SDS011;49473;50.772;8.768;2023-03-31T15:24:22;3.30;;;1.13;;
2386;SDS011;49473;50.772;8.768;2023-03-31T15:26:50;3.50;;;1.07;;
2386;SDS011;49473;50.772;8.768;2023-03-31T15:29:23;4.03;;;1.40;;
2386;SDS011;49473;50.772;8.768;2023-03-31T15:31:57;3.70;;;2.40;;
2386;SDS011;49473;50.772;8.768;2023-03-31T15:34:24;4.33;;;2.70;;
2386;SDS011;49473;50.772;8.768;2023-03-31T15:36:56;4.83;;;1.80;;
2386;SDS011;49473;50.772;8.768;2023-03-31T15:39:23;5.50;;;2.20;;
2386;SDS011;49473;50.772;8.768;2023-03-31T15:41:50;4.27;;;3.57;;
2386;SDS011;49473;50.772;8.768;2023-03-31T15:44:28;6.63;;;3.10;;
2386;SDS011;49473;50.772;8.768;2023-03-31T15:47:05;2.90;;;2.37;;
2386;SDS011;49473;50.772;8.768;2023-03-31T15:49:37;12.40;;;7.50;;
2386;SDS011;49473;50.772;8.768;2023-03-31T15:52:19;8.63;;;7.13;;
2386;SDS011;49473;50.772;8.768;2023-03-31T15:54:50;8.00;;;6.40;;